createdAt,value
2022-08-17T00:02:26.140Z,30.67
2022-08-17T00:04:54.278Z,31.92
2022-08-17T00:07:21.450Z,29.77
2022-08-17T00:09:48.444Z,28.27
2022-08-17T00:12:40.695Z,31.83
2022-08-17T00:15:04.111Z,28.02
2022-08-17T00:17:31.016Z,27.48
2022-08-17T00:19:57.960Z,34.88
2022-08-17T00:22:30.824Z,29.33
2022-08-17T00:25:07.502Z,34.75
2022-08-17T00:27:35.026Z,30.90
2022-08-17T00:30:02.471Z,30.60
2022-08-17T00:33:22.893Z,29.60
2022-08-17T00:35:19.729Z,33.00
2022-08-17T00:37:46.660Z,33.97
2022-08-17T00:40:15.611Z,30.27
2022-08-17T00:42:43.771Z,29.85
2022-08-17T00:45:14.719Z,31.80
2022-08-17T00:47:42.476Z,31.05
2022-08-17T00:50:12.236Z,29.80
2022-08-17T00:52:51.589Z,32.35
2022-08-17T00:55:20.013Z,28.48
2022-08-17T00:57:55.178Z,30.88
2022-08-17T01:00:29.287Z,34.05
2022-08-17T01:03:11.934Z,31.90
2022-08-17T01:05:42.243Z,31.48
2022-08-17T01:08:13.418Z,30.83
2022-08-17T01:10:59.417Z,32.70
2022-08-17T01:13:36.740Z,30.00
2022-08-17T01:16:10.139Z,33.05
2022-08-17T01:18:38.182Z,33.78
2022-08-17T01:21:14.606Z,32.08
2022-08-17T01:23:42.455Z,33.47
2022-08-17T01:26:09.468Z,30.88
2022-08-17T01:28:55.168Z,32.92
2022-08-17T01:31:26.894Z,32.53
2022-08-17T01:33:53.907Z,36.05
2022-08-17T01:36:21.171Z,35.55
2022-08-17T01:38:48.189Z,33.42
2022-08-17T01:41:17.393Z,32.28
2022-08-17T01:43:52.270Z,32.60
2022-08-17T01:46:25.041Z,32.83
2022-08-17T01:48:52.048Z,33.05
2022-08-17T01:51:20.638Z,34.72
2022-08-17T01:53:58.307Z,34.95
2022-08-17T01:56:26.690Z,32.40
2022-08-17T01:58:54.120Z,33.50
2022-08-17T02:01:23.945Z,33.97
2022-08-17T02:03:54.525Z,35.67
2022-08-17T02:06:31.321Z,27.25
2022-08-17T02:09:16.522Z,32.00
2022-08-17T02:11:45.312Z,30.95
2022-08-17T02:14:13.778Z,39.38
2022-08-17T02:16:41.504Z,34.65
2022-08-17T02:19:12.717Z,34.55
2022-08-17T02:21:41.216Z,34.65
2022-08-17T02:24:13.401Z,35.13
2022-08-17T02:26:40.574Z,34.15
2022-08-17T02:29:07.738Z,32.38
2022-08-17T02:31:35.675Z,31.65
2022-08-17T02:34:05.162Z,30.90
2022-08-17T02:36:34.404Z,32.95
2022-08-17T02:39:03.441Z,33.88
2022-08-17T02:41:31.099Z,33.58
2022-08-17T02:43:58.702Z,34.15
2022-08-17T02:46:26.210Z,33.55
2022-08-17T02:48:53.196Z,32.90
2022-08-17T02:51:20.227Z,32.47
2022-08-17T02:53:47.222Z,35.75
2022-08-17T02:56:14.174Z,33.10
2022-08-17T02:58:41.130Z,30.48
2022-08-17T03:01:10.005Z,34.45
2022-08-17T03:03:38.308Z,37.90
2022-08-17T03:06:06.404Z,38.08
2022-08-17T03:08:33.784Z,38.53
2022-08-17T03:11:00.779Z,35.42
2022-08-17T03:13:27.983Z,33.58
2022-08-17T03:15:54.926Z,32.30
2022-08-17T03:18:25.015Z,33.40
2022-08-17T03:21:00.319Z,33.13
2022-08-17T03:23:29.459Z,31.35
2022-08-17T03:25:57.096Z,27.17
2022-08-17T03:28:24.614Z,28.95
2022-08-17T03:30:52.476Z,31.08
2022-08-17T03:33:19.446Z,32.13
2022-08-17T03:35:46.706Z,30.77
2022-08-17T03:38:15.904Z,30.88
2022-08-17T03:40:57.855Z,29.75
2022-08-17T03:43:28.919Z,28.85
2022-08-17T03:46:27.673Z,30.27
2022-08-17T03:49:24.579Z,31.02
2022-08-17T03:52:11.494Z,29.67
2022-08-17T03:54:57.952Z,28.92
2022-08-17T03:57:25.937Z,39.53
2022-08-17T03:59:54.514Z,35.08
2022-08-17T04:02:28.116Z,36.08
2022-08-17T04:04:55.226Z,37.00
2022-08-17T04:07:24.693Z,33.03
2022-08-17T04:09:51.848Z,36.13
2022-08-17T04:12:21.163Z,34.13
2022-08-17T04:14:51.653Z,28.88
2022-08-17T04:17:20.099Z,29.73
2022-08-17T04:19:47.236Z,36.13
2022-08-17T04:22:31.794Z,35.03
2022-08-17T04:25:13.763Z,34.90
2022-08-17T04:27:40.638Z,35.10
2022-08-17T04:30:08.412Z,37.25
2022-08-17T04:33:04.099Z,37.72
2022-08-17T04:35:37.175Z,32.15
2022-08-17T04:38:04.734Z,32.17
2022-08-17T04:40:50.456Z,33.72
2022-08-17T04:43:20.535Z,31.83
2022-08-17T04:45:56.113Z,32.97
2022-08-17T04:48:29.782Z,32.83
2022-08-17T04:51:04.422Z,33.70
2022-08-17T04:53:31.371Z,29.98
2022-08-17T04:55:59.321Z,32.30
2022-08-17T04:58:26.237Z,30.63
2022-08-17T05:00:53.503Z,33.17
2022-08-17T05:03:20.442Z,33.92
2022-08-17T05:05:49.686Z,36.67
2022-08-17T05:08:19.475Z,30.70
2022-08-17T05:10:47.303Z,32.30
2022-08-17T05:13:21.781Z,36.80
2022-08-17T05:15:53.363Z,35.20
2022-08-17T05:18:20.268Z,31.45
2022-08-17T05:20:47.452Z,31.77
2022-08-17T05:23:19.291Z,31.85
2022-08-17T05:25:49.238Z,28.67
2022-08-17T05:28:18.858Z,29.70
2022-08-17T05:30:51.607Z,32.63
2022-08-17T05:33:25.052Z,29.13
2022-08-17T05:35:54.625Z,28.63
2022-08-17T05:38:24.478Z,28.27
2022-08-17T05:40:52.088Z,26.65
2022-08-17T05:43:20.951Z,27.40
2022-08-17T05:46:18.765Z,28.40
2022-08-17T05:48:51.620Z,29.17
2022-08-17T05:51:36.713Z,28.25
2022-08-17T05:54:22.192Z,25.02
2022-08-17T05:57:21.004Z,31.13
2022-08-17T05:59:58.984Z,26.98
2022-08-17T06:02:47.043Z,25.88
2022-08-17T06:05:42.032Z,26.02
2022-08-17T06:08:19.368Z,27.45
2022-08-17T06:10:53.423Z,28.30
2022-08-17T06:13:34.762Z,25.40
2022-08-17T06:16:32.945Z,26.27
2022-08-17T06:19:02.456Z,27.88
2022-08-17T06:21:35.167Z,28.75
2022-08-17T06:24:45.309Z,28.27
2022-08-17T06:27:34.171Z,26.10
2022-08-17T06:30:09.484Z,28.25
2022-08-17T06:32:41.973Z,25.10
2022-08-17T06:35:11.944Z,25.83
2022-08-17T06:38:19.880Z,25.25
2022-08-17T06:41:19.657Z,24.58
2022-08-17T06:44:10.062Z,24.15
2022-08-17T06:46:38.450Z,26.25
2022-08-17T06:49:35.129Z,25.15
2022-08-17T06:52:46.025Z,26.52
2022-08-17T06:55:18.069Z,24.15
2022-08-17T07:00:23.244Z,25.77
2022-08-17T07:03:09.041Z,27.05
2022-08-17T07:05:47.781Z,25.98
2022-08-17T07:08:38.389Z,26.70
2022-08-17T07:11:15.566Z,27.48
2022-08-17T07:14:05.560Z,24.77
2022-08-17T07:16:48.641Z,25.63
2022-08-17T07:19:22.649Z,26.63
2022-08-17T07:22:16.557Z,27.55
2022-08-17T07:24:58.387Z,27.63
2022-08-17T07:27:31.662Z,27.48
2022-08-17T07:30:10.301Z,26.13
2022-08-17T07:32:45.572Z,24.88
2022-08-17T07:35:31.206Z,28.00
2022-08-17T07:38:25.008Z,25.38
2022-08-17T07:41:02.636Z,25.83
2022-08-17T07:43:56.532Z,26.20
2022-08-17T07:46:54.101Z,31.35
2022-08-17T07:49:23.058Z,28.17
2022-08-17T07:51:55.473Z,28.17
2022-08-17T07:54:39.913Z,28.65
2022-08-17T07:57:15.522Z,29.88
2022-08-17T08:00:03.541Z,28.65
2022-08-17T08:02:42.352Z,28.80
2022-08-17T08:05:46.707Z,25.77
2022-08-17T08:08:42.451Z,28.48
2022-08-17T08:11:28.202Z,28.13
2022-08-17T08:13:55.349Z,29.60
2022-08-17T08:16:29.716Z,28.40
2022-08-17T08:19:01.854Z,26.92
2022-08-17T08:21:59.099Z,28.58
2022-08-17T08:25:07.479Z,28.98
2022-08-17T08:28:27.581Z,26.67
2022-08-17T08:31:07.413Z,29.83
2022-08-17T08:33:48.099Z,28.02
2022-08-17T08:37:14.187Z,25.92
2022-08-17T08:39:42.356Z,26.95
2022-08-17T08:42:35.586Z,26.13
2022-08-17T08:45:09.549Z,29.10
2022-08-17T08:48:46.043Z,25.20
2022-08-17T08:51:34.352Z,27.77
2022-08-17T08:54:45.838Z,25.15
2022-08-17T08:57:34.490Z,25.85
2022-08-17T09:00:16.487Z,28.55
2022-08-17T09:03:03.846Z,23.73
2022-08-17T09:06:00.562Z,23.88
2022-08-17T09:08:30.234Z,24.08
2022-08-17T09:11:11.608Z,24.23
2022-08-17T09:14:21.314Z,23.45
2022-08-17T09:17:20.836Z,19.48
2022-08-17T09:20:05.970Z,21.63
2022-08-17T09:22:44.458Z,15.35
2022-08-17T09:25:21.203Z,15.18
2022-08-17T09:27:51.237Z,16.88
2022-08-17T09:30:19.461Z,16.25
2022-08-17T09:32:59.283Z,13.98
2022-08-17T09:35:39.717Z,15.90
2022-08-17T09:38:21.563Z,13.23
2022-08-17T09:41:01.904Z,16.67
2022-08-17T09:44:22.645Z,13.05
2022-08-17T09:47:04.079Z,14.77
2022-08-17T09:49:37.745Z,15.27
2022-08-17T09:52:25.972Z,16.05
2022-08-17T09:54:54.900Z,15.43
2022-08-17T09:57:32.348Z,15.05
2022-08-17T10:00:16.230Z,13.93
2022-08-17T10:03:17.229Z,13.20
2022-08-17T10:06:07.803Z,16.90
2022-08-17T10:08:39.251Z,14.18
2022-08-17T10:11:08.980Z,12.85
2022-08-17T10:13:52.667Z,15.13
2022-08-17T10:16:35.419Z,13.70
2022-08-17T10:19:18.760Z,14.55
2022-08-17T10:22:14.667Z,13.55
2022-08-17T10:25:22.548Z,13.32
2022-08-17T10:28:19.755Z,13.45
2022-08-17T10:31:16.553Z,14.15
2022-08-17T10:33:59.330Z,14.13
2022-08-17T10:36:35.608Z,13.90
2022-08-17T10:39:35.639Z,14.32
2022-08-17T10:42:33.101Z,13.60
2022-08-17T10:45:07.595Z,17.20
2022-08-17T10:48:20.846Z,12.95
2022-08-17T10:50:58.155Z,13.13
2022-08-17T10:53:43.573Z,13.35
2022-08-17T10:56:13.609Z,13.20
2022-08-17T10:58:57.846Z,13.57
2022-08-17T11:01:33.988Z,13.48
2022-08-17T11:04:25.125Z,15.20
2022-08-17T11:07:11.325Z,14.27
2022-08-17T11:10:17.250Z,14.80
2022-08-17T11:13:22.049Z,15.60
2022-08-17T11:16:14.325Z,16.13
2022-08-17T11:19:15.668Z,15.63
2022-08-17T11:22:06.747Z,13.82
2022-08-17T11:24:40.004Z,16.15
2022-08-17T11:27:30.884Z,15.00
2022-08-17T11:30:02.662Z,15.15
2022-08-17T11:32:38.125Z,15.20
2022-08-17T11:35:43.846Z,13.48
2022-08-17T11:38:16.941Z,12.80
2022-08-17T11:41:14.639Z,11.70
2022-08-17T11:43:53.384Z,11.50
2022-08-17T11:47:13.375Z,13.32
2022-08-17T11:50:02.082Z,12.05
2022-08-17T11:52:40.062Z,13.57
2022-08-17T11:55:34.045Z,13.13
2022-08-17T11:58:01.809Z,12.68
2022-08-17T12:00:51.927Z,13.60
2022-08-17T12:03:22.595Z,14.57
2022-08-17T12:05:53.597Z,14.60
2022-08-17T12:08:22.329Z,13.60
2022-08-17T12:11:12.686Z,14.02
2022-08-17T12:14:00.669Z,13.27
2022-08-17T12:16:28.017Z,13.20
2022-08-17T12:19:02.327Z,12.45
2022-08-17T12:21:42.876Z,11.95
2022-08-17T12:24:23.605Z,13.80
2022-08-17T12:26:58.581Z,12.65
2022-08-17T12:29:35.599Z,12.50
2022-08-17T12:32:07.157Z,13.95
2022-08-17T12:34:42.722Z,14.00
2022-08-17T12:37:23.572Z,14.02
2022-08-17T12:39:59.722Z,14.93
2022-08-17T12:42:39.369Z,13.98
2022-08-17T12:45:23.931Z,14.35
2022-08-17T12:48:07.763Z,13.75
2022-08-17T12:50:37.345Z,14.30
2022-08-17T12:53:10.691Z,13.80
2022-08-17T12:55:38.881Z,12.95
2022-08-17T12:58:14.491Z,14.43
2022-08-17T13:00:48.915Z,13.95
2022-08-17T13:03:25.574Z,13.93
2022-08-17T13:05:52.618Z,15.50
2022-08-17T13:08:24.202Z,13.68
2022-08-17T13:10:56.761Z,14.20
2022-08-17T13:13:27.280Z,15.27
2022-08-17T13:16:06.786Z,13.88
2022-08-17T13:18:36.655Z,14.10
2022-08-17T13:21:03.820Z,14.82
2022-08-17T13:23:32.422Z,13.75
2022-08-17T13:26:08.215Z,15.52
2022-08-17T13:28:37.424Z,17.55
2022-08-17T13:31:30.376Z,15.35
2022-08-17T13:34:16.110Z,14.23
2022-08-17T13:36:45.759Z,13.63
2022-08-17T13:39:25.201Z,17.17
2022-08-17T13:41:55.442Z,16.25
2022-08-17T13:44:37.267Z,17.77
2022-08-17T13:47:14.684Z,17.08
2022-08-17T13:49:48.914Z,14.93
2022-08-17T13:52:41.189Z,15.20
2022-08-17T13:55:18.083Z,16.33
2022-08-17T13:57:48.476Z,19.75
2022-08-17T14:00:30.163Z,16.92
2022-08-17T14:03:02.347Z,14.80
2022-08-17T14:05:31.487Z,14.70
2022-08-17T14:08:06.678Z,15.70
2022-08-17T14:10:38.698Z,13.90
2022-08-17T14:13:06.907Z,13.40
2022-08-17T14:15:54.627Z,13.90
2022-08-17T14:18:49.817Z,13.85
2022-08-17T14:21:09.684Z,14.25
2022-08-17T14:23:37.824Z,14.18
2022-08-17T14:26:05.760Z,14.43
2022-08-17T14:28:32.750Z,14.45
2022-08-17T14:31:03.121Z,13.73
2022-08-17T14:33:30.132Z,19.30
2022-08-17T14:35:57.710Z,17.08
2022-08-17T14:38:25.254Z,14.68
2022-08-17T14:40:52.639Z,15.50
2022-08-17T14:43:20.523Z,14.90
2022-08-17T14:45:47.543Z,13.98
2022-08-17T14:48:14.533Z,14.32
2022-08-17T14:50:43.055Z,16.38
2022-08-17T14:53:13.494Z,17.50
2022-08-17T14:55:40.731Z,15.13
2022-08-17T14:58:09.405Z,15.38
2022-08-17T15:00:37.295Z,15.93
2022-08-17T15:03:11.583Z,15.02
2022-08-17T15:05:39.629Z,15.77
2022-08-17T15:08:08.298Z,15.57
2022-08-17T15:10:36.267Z,16.13
2022-08-17T15:13:21.094Z,16.27
2022-08-17T15:15:49.364Z,16.58
2022-08-17T15:18:16.526Z,16.90
2022-08-17T15:20:44.704Z,16.67
2022-08-17T15:23:23.763Z,16.67
2022-08-17T15:25:52.819Z,14.48
2022-08-17T15:28:22.767Z,15.52
2022-08-17T15:30:50.986Z,18.05
2022-08-17T15:33:24.224Z,15.85
2022-08-17T15:35:53.557Z,15.65
2022-08-17T15:38:20.474Z,17.60
2022-08-17T15:40:50.248Z,15.93
2022-08-17T15:43:26.461Z,16.13
2022-08-17T15:46:04.267Z,16.02
2022-08-17T15:48:43.415Z,15.38
2022-08-17T15:51:26.285Z,14.75
2022-08-17T15:53:59.230Z,16.33
2022-08-17T15:56:27.597Z,15.52
2022-08-17T15:58:55.328Z,16.17
2022-08-17T16:01:57.411Z,16.98
2022-08-17T16:04:29.582Z,16.02
2022-08-17T16:06:57.668Z,16.25
2022-08-17T16:09:24.620Z,15.20
2022-08-17T16:11:54.257Z,15.70
2022-08-17T16:14:24.086Z,15.85
2022-08-17T16:16:51.523Z,16.20
2022-08-17T16:19:18.597Z,17.33
2022-08-17T16:21:45.545Z,18.25
2022-08-17T16:24:13.637Z,17.25
2022-08-17T16:26:42.411Z,15.63
2022-08-17T16:29:09.667Z,16.02
2022-08-17T16:31:37.828Z,16.13
2022-08-17T16:34:18.025Z,15.90
2022-08-17T16:36:55.029Z,16.15
2022-08-17T16:39:27.605Z,15.15
2022-08-17T16:41:56.150Z,17.05
2022-08-17T16:44:23.975Z,16.35
2022-08-17T16:46:51.248Z,22.10
2022-08-17T16:49:35.728Z,17.08
2022-08-17T16:52:06.949Z,16.48
2022-08-17T16:54:35.498Z,16.08
2022-08-17T16:57:05.135Z,16.65
2022-08-17T16:59:42.120Z,16.17
2022-08-17T17:02:23.411Z,17.15
2022-08-17T17:05:03.123Z,16.17
2022-08-17T17:07:36.275Z,16.27
2022-08-17T17:10:26.840Z,16.75
2022-08-17T17:13:01.067Z,16.98
2022-08-17T17:16:07.948Z,16.55
2022-08-17T17:18:43.062Z,15.80
2022-08-17T17:21:16.982Z,15.23
2022-08-17T17:23:59.472Z,17.92
2022-08-17T17:27:07.737Z,16.30
2022-08-17T17:29:47.855Z,15.60
2022-08-17T17:32:56.240Z,16.50
2022-08-17T17:35:32.485Z,17.83
2022-08-17T17:38:06.094Z,16.27
2022-08-17T17:40:44.696Z,14.15
2022-08-17T17:43:37.694Z,14.38
2022-08-17T17:46:26.513Z,17.38
2022-08-17T17:48:53.885Z,14.55
2022-08-17T17:52:07.777Z,15.90
2022-08-17T17:54:37.338Z,13.75
2022-08-17T17:57:39.247Z,14.40
2022-08-17T18:00:25.231Z,15.30
2022-08-17T18:03:23.300Z,14.77
2022-08-17T18:06:02.707Z,17.20
2022-08-17T18:08:52.889Z,13.68
2022-08-17T18:11:59.095Z,12.73
2022-08-17T18:14:33.129Z,10.00
2022-08-17T18:17:01.873Z,8.70
2022-08-17T18:19:31.156Z,9.73
2022-08-17T18:22:25.415Z,8.30
2022-08-17T18:24:56.229Z,6.30
2022-08-17T18:27:55.826Z,6.13
2022-08-17T18:30:28.992Z,7.28
2022-08-17T18:33:23.725Z,5.30
2022-08-17T18:35:58.755Z,5.63
2022-08-17T18:38:43.473Z,5.85
2022-08-17T18:41:30.693Z,4.50
2022-08-17T18:44:16.093Z,3.08
2022-08-17T18:46:44.081Z,5.90
2022-08-17T18:49:20.161Z,7.93
2022-08-17T18:51:47.158Z,2.70
2022-08-17T18:54:24.006Z,4.10
2022-08-17T18:56:57.154Z,4.03
2022-08-17T18:59:39.294Z,4.60
2022-08-17T19:02:39.030Z,2.92
2022-08-17T19:05:30.061Z,1.77
2022-08-17T19:08:26.087Z,1.70
2022-08-17T19:10:58.763Z,2.80
2022-08-17T19:13:37.442Z,3.17
2022-08-17T19:16:34.450Z,3.78
2022-08-17T19:19:41.596Z,4.18
2022-08-17T19:22:29.187Z,3.30
2022-08-17T19:25:11.077Z,4.32
2022-08-17T19:27:58.122Z,4.35
2022-08-17T19:30:25.925Z,2.67
2022-08-17T19:32:53.193Z,2.92
2022-08-17T19:35:24.840Z,3.28
2022-08-17T19:38:37.887Z,4.43
2022-08-17T19:41:29.263Z,3.15
2022-08-17T19:44:13.677Z,4.03
2022-08-17T19:46:48.551Z,2.67
2022-08-17T19:49:57.548Z,3.58
2022-08-17T19:52:55.931Z,1.55
2022-08-17T19:55:43.567Z,3.88
2022-08-17T19:58:33.406Z,4.18
2022-08-17T20:01:01.165Z,1.67
2022-08-17T20:03:35.304Z,2.17
2022-08-17T20:06:13.013Z,2.53
2022-08-17T20:08:45.775Z,4.10
2022-08-17T20:11:28.074Z,1.42
2022-08-17T20:14:09.786Z,2.53
2022-08-17T20:16:38.272Z,1.98
2022-08-17T20:19:51.938Z,1.15
2022-08-17T20:22:46.096Z,2.88
2022-08-17T20:25:31.600Z,3.92
2022-08-17T20:28:17.420Z,2.55
2022-08-17T20:30:45.171Z,2.58
2022-08-17T20:33:36.988Z,3.20
2022-08-17T20:36:22.612Z,1.98
2022-08-17T20:38:53.976Z,5.53
2022-08-17T20:41:24.203Z,1.65
2022-08-17T20:44:06.100Z,2.75
2022-08-17T20:46:38.851Z,1.35
2022-08-17T20:49:08.868Z,2.78
2022-08-17T20:52:01.331Z,2.47
2022-08-17T20:55:00.125Z,1.20
2022-08-17T20:57:33.000Z,1.27
2022-08-17T21:00:14.145Z,6.20
2022-08-17T21:02:44.600Z,2.40
2022-08-17T21:05:59.913Z,5.88
2022-08-17T21:08:32.235Z,3.97
2022-08-17T21:11:01.342Z,5.07
2022-08-17T21:14:10.417Z,4.40
2022-08-17T21:16:45.097Z,5.22
2022-08-17T21:19:31.291Z,9.40
2022-08-17T21:22:21.401Z,6.07
2022-08-17T21:25:12.151Z,4.10
2022-08-17T21:28:07.275Z,3.33
2022-08-17T21:30:41.005Z,5.00
2022-08-17T21:33:18.642Z,5.13
2022-08-17T21:35:49.267Z,5.20
2022-08-17T21:38:19.953Z,5.60
2022-08-17T21:40:51.626Z,6.55
2022-08-17T21:43:24.477Z,3.13
2022-08-17T21:45:59.810Z,3.83
2022-08-17T21:48:29.381Z,3.70
2022-08-17T21:51:14.685Z,4.70
2022-08-17T21:53:47.099Z,2.75
2022-08-17T21:56:30.333Z,2.92
2022-08-17T21:59:25.781Z,3.30
2022-08-17T22:02:02.122Z,3.15
2022-08-17T22:04:35.184Z,5.18
2022-08-17T22:07:06.227Z,5.47
2022-08-17T22:09:42.931Z,3.35
2022-08-17T22:12:17.364Z,3.13
2022-08-17T22:14:55.907Z,3.85
2022-08-17T22:17:27.279Z,3.50
2022-08-17T22:20:01.154Z,5.38
2022-08-17T22:23:18.744Z,2.53
2022-08-17T22:26:12.676Z,3.80
2022-08-17T22:28:45.791Z,5.78
2022-08-17T22:31:15.807Z,5.28
2022-08-17T22:33:48.007Z,0.88
2022-08-17T22:36:34.056Z,1.05
2022-08-17T22:39:08.602Z,2.15
2022-08-17T22:41:40.533Z,2.63
2022-08-17T22:44:14.234Z,2.05
2022-08-17T22:47:20.147Z,2.20
2022-08-17T22:49:58.067Z,1.02
2022-08-17T22:52:57.423Z,0.95
2022-08-17T22:55:44.090Z,0.93
2022-08-17T22:58:32.083Z,1.42
2022-08-17T23:01:36.995Z,4.03
2022-08-17T23:04:16.064Z,1.17
2022-08-17T23:06:43.000Z,1.63
2022-08-17T23:09:09.880Z,1.55
2022-08-17T23:11:49.202Z,2.13
2022-08-17T23:14:21.155Z,0.77
2022-08-17T23:16:50.218Z,1.55
2022-08-17T23:19:20.222Z,1.67
2022-08-17T23:21:48.910Z,1.08
2022-08-17T23:24:23.663Z,0.75
2022-08-17T23:26:50.571Z,1.05
2022-08-17T23:29:17.651Z,1.48
2022-08-17T23:31:44.555Z,1.17
2022-08-17T23:34:14.692Z,1.05
2022-08-17T23:36:45.404Z,1.48
2022-08-17T23:39:12.455Z,1.50
2022-08-17T23:41:40.217Z,1.38
2022-08-17T23:44:07.767Z,1.13
2022-08-17T23:46:35.275Z,3.85
2022-08-17T23:49:03.266Z,1.35
2022-08-17T23:51:38.450Z,1.23
2022-08-17T23:54:12.553Z,1.05
2022-08-17T23:56:48.503Z,3.22
2022-08-17T23:59:18.385Z,2.30
